Terminal Aerodrome Forecast
Issued by NWS Bismarck, ND

Home | Current Version | Previous Version | Text Only | Print | Product List | Glossary On
Versions: 1 2 3 4 5 6 7 8 9 10 11 12 13 14 15 16 17 18
000
FTUS43 KBIS 300526
TAFBIS
TAF
KBIS 300526Z 3006/3106 15006KT 6SM FU BKN250
      TEMPO 3010/3014 3SM FU SCT030 BKN250
     FM301500 17012KT P6SM SCT250
     FM301900 18018G24KT P6SM FEW250
     FM310300 13010KT P6SM SCT150 BKN250=

USA.gov is the U.S. government's official web portal to all federal, state and local government web resources and services.